createdAt,value
2023-03-14T00:00:40.984Z,11.65
2023-03-14T00:04:41.323Z,11.73
2023-03-14T00:08:46.231Z,11.45
2023-03-14T00:12:47.050Z,11.36
2023-03-14T00:16:50.459Z,11.31
2023-03-14T00:20:50.797Z,11.23
2023-03-14T00:24:54.507Z,11.01
2023-03-14T00:28:57.630Z,11.07
2023-03-14T00:32:58.076Z,10.99
2023-03-14T00:36:58.488Z,11.00
2023-03-14T00:41:02.549Z,10.98
2023-03-14T00:45:02.896Z,11.06
2023-03-14T00:49:03.122Z,11.03
2023-03-14T00:53:03.721Z,11.03
2023-03-14T00:57:06.740Z,11.04
2023-03-14T01:01:13.593Z,10.99
2023-03-14T01:05:16.057Z,10.92
2023-03-14T01:09:18.864Z,10.91
2023-03-14T01:13:21.718Z,10.95
2023-03-14T01:17:22.774Z,10.98
2023-03-14T01:21:27.593Z,11.06
2023-03-14T01:25:28.136Z,10.99
2023-03-14T01:29:31.618Z,11.05
2023-03-14T01:33:32.108Z,11.01
2023-03-14T01:37:32.851Z,11.07
2023-03-14T01:41:34.020Z,10.96
2023-03-14T01:46:22.725Z,10.92
2023-03-14T01:50:24.118Z,10.87
2023-03-14T01:54:32.136Z,10.83
2023-03-14T01:58:36.108Z,10.82
2023-03-14T02:02:39.668Z,10.88
2023-03-14T02:06:52.597Z,10.85
2023-03-14T02:10:56.824Z,10.98
2023-03-14T02:15:11.575Z,11.05
2023-03-14T02:20:16.089Z,11.02
2023-03-14T02:24:31.239Z,10.93
2023-03-14T02:28:40.206Z,10.95
2023-03-14T02:32:45.335Z,11.10
2023-03-14T02:36:48.565Z,10.97
2023-03-14T02:40:49.318Z,11.01
2023-03-14T02:45:04.050Z,11.07
2023-03-14T02:49:10.106Z,11.08
2023-03-14T02:53:11.087Z,11.12
2023-03-14T02:57:12.049Z,11.09
2023-03-14T03:01:15.426Z,11.17
2023-03-14T03:05:15.814Z,11.05
2023-03-14T03:09:16.166Z,11.07
2023-03-14T03:13:16.876Z,11.03
2023-03-14T03:17:21.910Z,11.08
2023-03-14T03:21:24.521Z,11.05
2023-03-14T03:25:24.913Z,10.98
2023-03-14T03:29:26.125Z,10.94
2023-03-14T03:33:30.412Z,10.91
2023-03-14T03:37:30.860Z,11.02
2023-03-14T03:41:32.935Z,10.87
2023-03-14T03:45:36.675Z,10.85
2023-03-14T03:49:42.058Z,10.96
2023-03-14T03:53:44.940Z,10.90
2023-03-14T03:57:47.979Z,10.87
2023-03-14T04:01:49.069Z,10.93
2023-03-14T04:06:03.370Z,10.94
2023-03-14T04:10:05.234Z,10.90
2023-03-14T04:14:13.110Z,10.92
2023-03-14T04:18:13.569Z,10.91
2023-03-14T04:22:18.941Z,10.91
2023-03-14T04:26:22.860Z,10.96
2023-03-14T04:30:23.657Z,10.93
2023-03-14T04:34:30.459Z,10.82
2023-03-14T04:38:34.538Z,10.81
2023-03-14T04:42:35.265Z,10.80
2023-03-14T04:46:36.153Z,10.86
2023-03-14T04:50:39.426Z,10.81
2023-03-14T04:54:42.736Z,10.67
2023-03-14T04:58:43.268Z,10.61
2023-03-14T05:02:44.533Z,10.56
2023-03-14T05:07:03.839Z,10.61
2023-03-14T05:11:23.832Z,10.54
2023-03-14T05:15:44.970Z,10.60
2023-03-14T05:20:08.698Z,10.52
2023-03-14T05:24:47.798Z,10.55
2023-03-14T05:29:09.674Z,10.69
2023-03-14T05:33:23.885Z,10.57
2023-03-14T05:37:36.114Z,10.55
2023-03-14T05:41:52.126Z,10.37
2023-03-14T05:46:18.508Z,10.55
2023-03-14T05:50:39.641Z,10.50
2023-03-14T05:54:46.207Z,10.39
2023-03-14T05:59:10.993Z,10.42
2023-03-14T06:03:34.422Z,10.47
2023-03-14T06:07:34.988Z,10.55
2023-03-14T06:11:36.364Z,10.61
2023-03-14T06:15:39.290Z,10.64
2023-03-14T06:19:42.557Z,10.77
2023-03-14T06:23:47.007Z,10.89
2023-03-14T06:27:47.457Z,10.91
2023-03-14T06:31:49.311Z,10.70
2023-03-14T06:35:54.808Z,10.87
2023-03-14T06:39:55.291Z,10.79
2023-03-14T06:44:14.611Z,10.81
2023-03-14T06:48:15.009Z,10.89
2023-03-14T06:52:25.380Z,11.17
2023-03-14T06:56:25.974Z,11.30
2023-03-14T07:00:29.426Z,11.14
2023-03-14T07:04:31.232Z,11.02
2023-03-14T07:08:37.482Z,11.28
2023-03-14T07:12:38.140Z,11.20
2023-03-14T07:16:38.614Z,11.40
2023-03-14T07:20:41.451Z,11.51
2023-03-14T07:24:45.211Z,11.80
2023-03-14T07:28:46.258Z,12.14
2023-03-14T07:32:50.487Z,12.33
2023-03-14T07:36:53.693Z,12.44
2023-03-14T07:41:03.151Z,12.56
2023-03-14T07:45:05.681Z,12.61
2023-03-14T07:49:06.154Z,12.34
2023-03-14T07:53:06.627Z,12.16
2023-03-14T07:57:11.931Z,12.16
2023-03-14T08:01:15.752Z,11.65
2023-03-14T08:05:18.766Z,11.70
2023-03-14T08:09:19.426Z,11.85
2023-03-14T08:13:22.634Z,11.97
2023-03-14T08:17:23.051Z,12.14
2023-03-14T08:21:24.024Z,12.12
2023-03-14T08:25:24.849Z,12.21
2023-03-14T08:29:28.017Z,12.27
2023-03-14T08:33:29.068Z,12.13
2023-03-14T08:37:29.437Z,12.14
2023-03-14T08:41:29.971Z,12.10
2023-03-14T08:45:33.275Z,12.38
2023-03-14T08:49:33.634Z,12.31
2023-03-14T08:53:33.960Z,12.46
2023-03-14T08:57:34.425Z,12.68
2023-03-14T09:01:37.837Z,12.92
2023-03-14T09:05:38.488Z,12.79
2023-03-14T09:09:38.795Z,12.76
2023-03-14T09:13:39.490Z,12.79
2023-03-14T09:17:42.330Z,12.65
2023-03-14T09:21:42.820Z,12.63
2023-03-14T09:25:43.149Z,13.15
2023-03-14T09:29:43.382Z,13.43
2023-03-14T09:33:46.540Z,13.77
2023-03-14T09:37:47.361Z,13.56
2023-03-14T09:41:51.857Z,13.36
2023-03-14T09:45:59.037Z,13.54
2023-03-14T09:50:04.501Z,13.81
2023-03-14T09:54:05.477Z,13.30
2023-03-14T09:58:14.484Z,13.51
2023-03-14T10:02:29.122Z,14.83
2023-03-14T10:06:35.958Z,15.24
2023-03-14T10:10:37.076Z,15.04
2023-03-14T10:14:41.054Z,15.15
2023-03-14T10:18:41.353Z,15.14
2023-03-14T10:22:45.157Z,15.14
2023-03-14T10:26:46.545Z,15.22
2023-03-14T10:30:50.032Z,14.23
2023-03-14T10:35:12.883Z,14.02
2023-03-14T10:39:40.117Z,14.20
2023-03-14T10:43:42.020Z,13.79
2023-03-14T10:47:54.013Z,13.80
2023-03-14T10:51:54.853Z,13.43
2023-03-14T10:56:02.449Z,13.52
2023-03-14T11:00:09.596Z,13.68
2023-03-14T11:04:33.690Z,14.29
2023-03-14T11:08:48.308Z,14.94
2023-03-14T11:13:14.745Z,15.01
2023-03-14T11:17:29.037Z,14.96
2023-03-14T11:21:40.039Z,14.86
2023-03-14T11:25:52.050Z,15.20
2023-03-14T11:30:03.062Z,15.04
2023-03-14T11:34:18.299Z,14.69
2023-03-14T11:38:32.898Z,14.44
2023-03-14T11:42:36.517Z,14.21
2023-03-14T11:46:45.551Z,14.23
2023-03-14T11:50:51.122Z,14.00
2023-03-14T11:54:59.246Z,13.93
2023-03-14T11:59:06.869Z,13.81
2023-03-14T12:03:23.868Z,13.60
2023-03-14T12:07:33.151Z,13.13
2023-03-14T12:11:48.595Z,12.85
2023-03-14T12:15:58.166Z,12.51
2023-03-14T12:20:20.464Z,12.39
2023-03-14T12:24:27.806Z,12.45
2023-03-14T12:28:35.944Z,13.00
2023-03-14T12:32:36.593Z,13.76
2023-03-14T12:37:27.854Z,15.09
2023-03-14T12:41:41.264Z,16.19
2023-03-14T12:45:45.118Z,16.18
2023-03-14T12:49:45.814Z,15.17
2023-03-14T12:54:40.419Z,15.14
2023-03-14T12:58:53.447Z,14.66
2023-03-14T13:02:57.506Z,14.54
2023-03-14T13:07:03.134Z,14.46
2023-03-14T13:11:15.161Z,14.15
2023-03-14T13:15:27.308Z,14.49
2023-03-14T13:19:32.205Z,14.45
2023-03-14T13:23:35.946Z,14.61
2023-03-14T13:27:44.424Z,15.33
2023-03-14T13:31:49.598Z,14.76
2023-03-14T13:35:54.589Z,14.67
2023-03-14T13:39:56.800Z,14.78
2023-03-14T13:44:09.636Z,14.54
2023-03-14T13:48:16.135Z,14.60
2023-03-14T13:52:34.585Z,14.29
2023-03-14T13:56:40.946Z,13.14
2023-03-14T14:00:47.845Z,11.33
2023-03-14T14:04:52.665Z,11.23
2023-03-14T14:08:55.722Z,11.23
2023-03-14T14:13:01.677Z,11.01
2023-03-14T14:17:08.169Z,10.96
2023-03-14T14:21:10.650Z,11.00
2023-03-14T14:25:17.725Z,10.95
2023-03-14T14:29:31.645Z,10.82
2023-03-14T14:33:44.339Z,10.72
2023-03-14T14:37:48.042Z,10.83
2023-03-14T14:41:52.065Z,10.68
2023-03-14T14:45:56.014Z,10.54
2023-03-14T14:50:04.198Z,10.76
2023-03-14T14:54:14.257Z,10.65
2023-03-14T14:58:28.712Z,10.67
2023-03-14T15:02:47.236Z,10.43
2023-03-14T15:06:55.285Z,10.52
2023-03-14T15:10:56.258Z,10.37
2023-03-14T15:14:58.461Z,10.40
2023-03-14T15:19:06.513Z,9.99
2023-03-14T15:23:21.422Z,9.82
2023-03-14T15:27:22.761Z,9.39
2023-03-14T15:31:25.224Z,9.02
2023-03-14T15:35:25.563Z,8.69
2023-03-14T15:39:28.651Z,8.77
2023-03-14T15:43:29.314Z,8.72
2023-03-14T15:47:29.576Z,8.60
2023-03-14T15:51:30.380Z,8.66
2023-03-14T15:55:35.691Z,8.35
2023-03-14T15:59:38.868Z,8.23
2023-03-14T16:03:41.757Z,8.08
2023-03-14T16:07:47.819Z,8.01
2023-03-14T16:11:50.784Z,8.09
2023-03-14T16:15:59.277Z,7.91
2023-03-14T16:20:00.001Z,8.01
2023-03-14T16:24:00.721Z,7.96
2023-03-14T16:28:10.857Z,7.88
2023-03-14T16:32:12.132Z,7.82
2023-03-14T16:36:15.757Z,7.67
2023-03-14T16:40:17.363Z,7.60
2023-03-14T16:44:20.852Z,7.47
2023-03-14T16:48:23.252Z,7.38
2023-03-14T16:52:23.489Z,7.65
2023-03-14T16:56:23.999Z,7.65
2023-03-14T17:00:27.545Z,7.61
2023-03-14T17:04:28.061Z,7.66
2023-03-14T17:08:28.522Z,7.48
2023-03-14T17:12:28.809Z,7.70
2023-03-14T17:16:33.054Z,7.52
2023-03-14T17:20:36.035Z,7.49
2023-03-14T17:24:37.533Z,7.62
2023-03-14T17:28:38.182Z,7.62
2023-03-14T17:32:41.394Z,7.73
2023-03-14T17:36:41.794Z,7.52
2023-03-14T17:40:42.056Z,7.44
2023-03-14T17:44:42.828Z,7.28
2023-03-14T17:48:47.932Z,7.27
2023-03-14T17:52:48.586Z,7.30
2023-03-14T17:56:50.144Z,7.33
2023-03-14T18:00:51.821Z,7.39
2023-03-14T18:04:57.597Z,7.48
2023-03-14T18:09:00.274Z,7.39
2023-03-14T18:13:02.123Z,6.89
2023-03-14T18:17:03.920Z,6.84
2023-03-14T18:21:09.250Z,6.66
2023-03-14T18:25:14.304Z,6.56
2023-03-14T18:29:16.706Z,6.33
2023-03-14T18:33:18.987Z,6.28
2023-03-14T18:37:25.275Z,6.51
2023-03-14T18:41:28.982Z,6.35
2023-03-14T18:45:33.803Z,6.70
2023-03-14T18:49:36.501Z,6.57
2023-03-14T18:53:42.679Z,6.57
2023-03-14T18:57:45.379Z,6.51
2023-03-14T19:01:52.186Z,6.64
2023-03-14T19:05:54.103Z,6.59
2023-03-14T19:09:59.896Z,6.64
2023-03-14T19:14:01.873Z,6.77
2023-03-14T19:18:04.435Z,6.85
2023-03-14T19:22:06.950Z,6.74
2023-03-14T19:26:16.812Z,6.83
2023-03-14T19:30:19.183Z,6.64
2023-03-14T19:34:21.872Z,6.59
2023-03-14T19:38:24.348Z,6.90
2023-03-14T19:42:30.555Z,6.83
2023-03-14T19:46:35.379Z,6.94
2023-03-14T19:50:38.385Z,6.85
2023-03-14T19:54:42.798Z,6.62
2023-03-14T19:58:47.548Z,6.63
2023-03-14T20:02:49.588Z,6.49
2023-03-14T20:06:50.505Z,6.10
2023-03-14T20:10:52.111Z,5.98
2023-03-14T20:14:56.085Z,5.70
2023-03-14T20:18:56.704Z,5.57
2023-03-14T20:22:57.138Z,5.66
2023-03-14T20:26:58.467Z,5.79
2023-03-14T20:31:01.952Z,5.62
2023-03-14T20:35:02.592Z,5.62
2023-03-14T20:39:03.263Z,5.52
2023-03-14T20:43:04.363Z,5.63
2023-03-14T20:47:07.838Z,5.49
2023-03-14T20:51:09.550Z,5.65
2023-03-14T20:55:11.532Z,5.54
2023-03-14T20:59:11.964Z,5.58
2023-03-14T21:03:15.456Z,5.70
2023-03-14T21:07:16.893Z,5.78
2023-03-14T21:11:17.404Z,5.68
2023-03-14T21:15:22.969Z,5.64
2023-03-14T21:19:30.819Z,5.65
2023-03-14T21:23:34.634Z,5.65
2023-03-14T21:27:37.993Z,5.63
2023-03-14T21:31:38.357Z,5.77
2023-03-14T21:35:41.524Z,5.91
2023-03-14T21:39:42.139Z,5.96
2023-03-14T21:43:44.433Z,5.92
2023-03-14T21:47:48.185Z,5.82
2023-03-14T21:51:52.509Z,5.71
2023-03-14T21:55:55.690Z,5.20
2023-03-14T21:59:56.383Z,5.08
2023-03-14T22:03:56.758Z,5.14
2023-03-14T22:08:00.012Z,5.00
2023-03-14T22:12:01.280Z,5.00
2023-03-14T22:16:01.821Z,4.65
2023-03-14T22:20:02.468Z,4.33
2023-03-14T22:24:08.175Z,4.15
2023-03-14T22:28:08.491Z,3.92
2023-03-14T22:32:10.906Z,3.80
2023-03-14T22:36:13.156Z,3.80
2023-03-14T22:40:17.150Z,3.68
2023-03-14T22:44:17.459Z,3.65
2023-03-14T22:48:18.336Z,3.71
2023-03-14T22:52:19.791Z,3.47
2023-03-14T22:56:23.117Z,3.57
2023-03-14T23:00:27.402Z,3.71
2023-03-14T23:04:30.229Z,3.73
2023-03-14T23:08:33.765Z,3.82
2023-03-14T23:12:39.408Z,3.88
2023-03-14T23:16:44.366Z,3.71
2023-03-14T23:20:48.642Z,3.59
2023-03-14T23:24:49.379Z,3.74
2023-03-14T23:28:54.663Z,3.89
2023-03-14T23:32:55.031Z,4.00
2023-03-14T23:36:56.133Z,4.01
2023-03-14T23:40:56.963Z,4.01
2023-03-14T23:45:00.196Z,3.94
2023-03-14T23:49:00.820Z,3.91
2023-03-14T23:53:01.339Z,4.01
2023-03-14T23:57:02.571Z,4.17
